Time;durP1;ratioP1;P1;durP2;ratioP2;P2;SDS_P1;SDS_P2;PMS_P1;PMS_P2;Temp;Humidity;BMP_temperature;BMP_pressure;BME280_temperature;BME280_humidity;BME280_pressure;Samples;Min_cycle;Max_cycle;Signal;HPM_P1;HPM_P2
2021/01/16 00:00:55;;;;;;;7.55;4.10;;;;;;;-6.46;78.47;102511.13;4993288;28;20026;-75
2021/01/16 00:03:21;;;;;;;10.60;4.20;;;;;;;-6.46;78.66;102519.09;4988616;28;20492;-74
2021/01/16 00:05:46;;;;;;;8.95;4.28;;;;;;;-6.45;78.79;102512.81;4992332;28;20077;-76
2021/01/16 00:08:13;;;;;;;8.55;4.10;;;;;;;-6.45;78.34;102510.16;4991288;28;20030;-74
2021/01/16 00:10:42;;;;;;;8.80;4.63;;;;;;;-6.44;78.54;102508.34;4978247;28;20034;-76
2021/01/16 00:13:10;;;;;;;9.10;4.07;;;;;;;-6.45;78.68;102502.19;4988906;28;20029;-74
2021/01/16 00:15:35;;;;;;;7.60;4.22;;;;;;;-6.46;78.67;102495.22;4992480;28;20088;-75
2021/01/16 00:18:05;;;;;;;9.93;4.40;;;;;;;-6.46;78.61;102494.38;4990668;28;20034;-75
2021/01/16 00:20:34;;;;;;;8.52;4.35;;;;;;;-6.47;78.45;102485.53;4984512;28;20109;-75
2021/01/16 00:23:00;;;;;;;9.10;4.50;;;;;;;-6.46;78.71;102491.72;4984163;28;20039;-75
2021/01/16 00:25:25;;;;;;;8.45;4.32;;;;;;;-6.50;78.58;102485.78;4981953;28;20038;-76
2021/01/16 00:27:51;;;;;;;8.70;4.47;;;;;;;-6.53;78.34;102488.69;4988757;28;20058;-74
2021/01/16 00:30:18;;;;;;;8.18;4.53;;;;;;;-6.55;78.97;102474.69;4991233;28;20114;-75
2021/01/16 00:32:43;;;;;;;9.45;4.53;;;;;;;-6.56;78.69;102473.00;4990060;28;20092;-76
2021/01/16 00:35:10;;;;;;;8.45;4.20;;;;;;;-6.57;78.93;102471.34;4975651;28;20038;-74
2021/01/16 00:37:36;;;;;;;10.82;4.60;;;;;;;-6.58;78.92;102470.47;4992053;28;20023;-75
2021/01/16 00:40:04;;;;;;;8.63;4.00;;;;;;;-6.60;78.75;102471.53;4985354;28;20114;-75
2021/01/16 00:42:29;;;;;;;8.52;4.22;;;;;;;-6.61;79.02;102464.56;4990964;28;20029;-75
2021/01/16 00:44:55;;;;;;;10.63;4.25;;;;;;;-6.62;78.96;102474.34;4992902;28;20037;-75
2021/01/16 00:47:20;;;;;;;10.55;3.88;;;;;;;-6.62;78.81;102473.50;4993622;28;20022;-75
2021/01/16 00:49:46;;;;;;;11.13;4.40;;;;;;;-6.63;78.95;102466.47;4981066;28;20026;-74
2021/01/16 00:52:11;;;;;;;10.77;4.82;;;;;;;-6.63;79.12;102469.13;4991519;28;20046;-75
2021/01/16 00:54:36;;;;;;;9.55;4.40;;;;;;;-6.63;79.12;102458.53;4990603;28;20077;-75
2021/01/16 00:57:02;;;;;;;11.30;5.35;;;;;;;-6.65;79.07;102463.13;4970342;28;20041;-75
2021/01/16 00:59:28;;;;;;;10.60;4.22;;;;;;;-6.67;78.87;102459.75;4989278;28;20026;-75
2021/01/16 01:01:53;;;;;;;10.70;4.68;;;;;;;-6.67;79.00;102463.22;4992364;28;20065;-75
2021/01/16 01:04:18;;;;;;;10.65;4.75;;;;;;;-6.68;79.02;102469.50;4978374;28;20035;-75
2021/01/16 01:06:44;;;;;;;9.50;4.25;;;;;;;-6.67;78.80;102471.19;4992258;28;20409;-75
2021/01/16 01:09:09;;;;;;;9.90;4.05;;;;;;;-6.67;78.95;102462.41;4984435;28;20026;-75
2021/01/16 01:11:34;;;;;;;9.20;4.55;;;;;;;-6.68;78.88;102458.03;4994276;28;20026;-75
2021/01/16 01:14:00;;;;;;;9.55;4.68;;;;;;;-6.68;78.98;102458.03;4993224;28;20038;-75
2021/01/16 01:16:25;;;;;;;10.60;4.40;;;;;;;-6.70;79.19;102455.53;4987926;28;20029;-75
2021/01/16 01:18:51;;;;;;;10.95;4.25;;;;;;;-6.70;79.05;102456.34;4992222;28;20424;-74
2021/01/16 01:21:16;;;;;;;13.07;4.72;;;;;;;-6.70;79.08;102461.66;4982466;28;20042;-75
2021/01/16 01:23:41;;;;;;;11.15;5.20;;;;;;;-6.69;78.97;102467.81;4981286;28;20038;-76
2021/01/16 01:26:07;;;;;;;9.93;5.13;;;;;;;-6.71;79.26;102465.28;4966537;28;20041;-75
2021/01/16 01:28:32;;;;;;;9.52;4.50;;;;;;;-6.68;79.31;102460.69;5001409;28;20033;-75
2021/01/16 01:30:58;;;;;;;8.82;4.55;;;;;;;-6.71;79.17;102449.38;4974134;28;20041;-75
2021/01/16 01:33:23;;;;;;;10.40;4.80;;;;;;;-6.71;79.12;102449.38;4973189;28;20042;-75
2021/01/16 01:35:48;;;;;;;11.52;5.20;;;;;;;-6.72;79.02;102442.38;4984878;28;20369;-76
2021/01/16 01:38:17;;;;;;;11.10;4.82;;;;;;;-6.71;79.47;102436.13;4991839;28;20080;-74
2021/01/16 01:40:43;;;;;;;11.30;4.45;;;;;;;-6.70;79.40;102432.47;4991593;28;20458;-74
2021/01/16 01:43:08;;;;;;;9.20;4.78;;;;;;;-6.68;79.14;102429.72;4990794;28;20037;-75
2021/01/16 01:45:34;;;;;;;12.30;5.10;;;;;;;-6.69;79.13;102425.38;4990475;28;20026;-75
2021/01/16 01:47:59;;;;;;;11.07;4.82;;;;;;;-6.68;79.39;102423.56;4979003;28;20027;-75
2021/01/16 01:50:24;;;;;;;13.65;5.45;;;;;;;-6.68;79.16;102426.19;4975299;28;20041;-74
2021/01/16 01:52:50;;;;;;;11.27;4.82;;;;;;;-6.68;79.26;102427.06;4963817;28;20030;-74
2021/01/16 01:55:16;;;;;;;10.30;5.32;;;;;;;-6.67;79.21;102417.31;4990382;28;20464;-76
2021/01/16 01:57:49;;;;;;;12.23;6.07;;;;;;;-6.66;79.30;102429.59;4980034;28;20534;-75
2021/01/16 02:00:14;;;;;;;8.18;5.20;;;;;;;-6.66;79.51;102422.47;4991045;28;20065;-75
2021/01/16 02:02:41;;;;;;;11.23;5.72;;;;;;;-6.64;79.37;102425.84;4986690;28;20060;-74
2021/01/16 02:05:07;;;;;;;10.00;4.97;;;;;;;-6.64;79.34;102427.66;4987398;28;20034;-75
2021/01/16 02:07:39;;;;;;;9.38;4.63;;;;;;;-6.64;79.41;102422.38;4961557;28;20405;-74
2021/01/16 02:10:12;;;;;;;12.77;5.97;;;;;;;-6.64;79.52;102425.00;4990142;28;20027;-74
2021/01/16 02:12:39;;;;;;;13.55;5.65;;;;;;;-6.64;79.32;102417.06;4972920;28;20438;-75
2021/01/16 02:15:10;;;;;;;10.18;5.05;;;;;;;-6.62;79.57;102413.31;4964711;28;20034;-74
2021/01/16 02:17:37;;;;;;;13.68;5.65;;;;;;;-6.60;79.57;102406.09;4983766;28;20025;-74
2021/01/16 02:20:06;;;;;;;9.80;4.65;;;;;;;-6.59;79.54;102405.13;4974311;28;20495;-74
2021/01/16 02:22:32;;;;;;;12.25;5.53;;;;;;;-6.59;79.49;102407.78;4990740;28;20034;-75
2021/01/16 02:25:33;;;;;;;16.63;7.22;;;;;;;-6.55;79.36;102405.72;4969099;28;20034;-74
2021/01/16 02:28:01;;;;;;;10.95;5.55;;;;;;;-6.53;79.49;102409.09;4996990;28;20042;-76
2021/01/16 02:30:26;;;;;;;14.15;5.63;;;;;;;-6.51;79.60;102413.31;4974586;28;20022;-74
2021/01/16 02:32:51;;;;;;;12.90;6.05;;;;;;;-6.49;79.49;102415.84;4973680;28;20372;-75
2021/01/16 02:35:18;;;;;;;13.40;5.30;;;;;;;-6.45;79.49;102422.59;4969769;28;20022;-74
2021/01/16 02:37:52;;;;;;;13.85;6.10;;;;;;;-6.45;79.83;102408.50;4988819;28;20030;-75
2021/01/16 02:40:32;;;;;;;11.95;5.75;;;;;;;-6.47;79.70;102405.94;4957130;28;20476;-74
2021/01/16 02:43:04;;;;;;;12.45;5.40;;;;;;;-6.47;79.77;102403.28;4989953;28;20026;-75
2021/01/16 02:45:44;;;;;;;12.40;5.45;;;;;;;-6.48;79.57;102402.44;4984991;28;20030;-76
2021/01/16 02:48:21;;;;;;;11.48;5.30;;;;;;;-6.50;79.69;102392.94;4975437;28;20100;-75
2021/01/16 02:50:54;;;;;;;10.38;5.05;;;;;;;-6.49;79.86;102387.50;4973630;28;20169;-74
2021/01/16 02:53:23;;;;;;;12.93;5.60;;;;;;;-6.49;79.79;102389.31;4984111;28;20030;-75
2021/01/16 02:55:49;;;;;;;10.15;5.05;;;;;;;-6.49;79.67;102389.31;4974006;28;20018;-75
2021/01/16 02:58:18;;;;;;;10.02;4.70;;;;;;;-6.48;79.61;102381.22;4967189;28;20034;-75
2021/01/16 03:00:44;;;;;;;13.07;4.93;;;;;;;-6.45;79.88;102382.78;4990500;28;20018;-74
2021/01/16 03:03:09;;;;;;;9.35;4.72;;;;;;;-6.43;79.70;102383.53;4974499;28;20384;-75
2021/01/16 03:05:35;;;;;;;10.25;4.43;;;;;;;-6.41;79.87;102380.72;4991142;28;20030;-76
2021/01/16 03:08:00;;;;;;;11.52;5.13;;;;;;;-6.42;79.97;102385.19;5002205;28;20353;-74
2021/01/16 03:10:26;;;;;;;9.45;4.65;;;;;;;-6.43;80.09;102383.53;4988453;28;20038;-75
2021/01/16 03:12:54;;;;;;;9.05;4.22;;;;;;;-6.44;79.78;102381.81;4989099;28;20030;-75
2021/01/16 03:15:20;;;;;;;9.85;5.82;;;;;;;-6.44;79.75;102365.91;4988180;28;20038;-75
2021/01/16 03:17:49;;;;;;;10.25;5.20;;;;;;;-6.43;79.92;102369.41;4965485;28;20037;-74
2021/01/16 03:20:20;;;;;;;9.82;4.80;;;;;;;-6.43;80.00;102367.59;4993494;28;20407;-75
2021/01/16 03:22:49;;;;;;;9.23;4.38;;;;;;;-6.43;80.00;102359.63;4995589;28;20129;-74
2021/01/16 03:25:18;;;;;;;9.93;4.78;;;;;;;-6.42;79.96;102357.81;4992272;28;20030;-75
2021/01/16 03:27:43;;;;;;;10.82;4.53;;;;;;;-6.42;80.04;102356.00;4993419;28;20050;-75
2021/01/16 03:30:09;;;;;;;11.38;5.20;;;;;;;-6.42;80.22;102363.13;4991323;28;20049;-75
2021/01/16 03:32:34;;;;;;;9.57;4.68;;;;;;;-6.43;80.08;102359.63;4994979;28;20367;-74
2021/01/16 03:35:00;;;;;;;10.82;5.53;;;;;;;-6.42;79.98;102356.00;4991687;28;20041;-73
2021/01/16 03:37:25;;;;;;;11.02;5.28;;;;;;;-6.42;80.02;102352.53;4991478;28;20034;-75
2021/01/16 03:39:51;;;;;;;10.10;4.78;;;;;;;-6.43;79.97;102351.69;4960845;28;20030;-76
2021/01/16 03:42:16;;;;;;;11.82;4.85;;;;;;;-6.42;80.08;102356.00;4993077;28;20077;-74
2021/01/16 03:44:42;;;;;;;12.27;5.25;;;;;;;-6.40;79.94;102354.09;4992917;28;20073;-75
2021/01/16 03:47:07;;;;;;;13.10;5.20;;;;;;;-6.38;80.12;102357.47;4993675;28;20034;-76
2021/01/16 03:49:33;;;;;;;9.38;5.60;;;;;;;-6.38;80.05;102344.19;4990572;28;20030;-75
2021/01/16 03:51:58;;;;;;;11.15;5.20;;;;;;;-6.36;80.27;102339.59;4966968;28;20027;-75
2021/01/16 03:54:23;;;;;;;9.15;5.60;;;;;;;-6.36;80.23;102338.75;4989765;28;20214;-75
2021/01/16 03:56:49;;;;;;;8.43;4.10;;;;;;;-6.35;80.18;102343.94;4992661;28;20030;-75
2021/01/16 03:59:14;;;;;;;12.10;4.82;;;;;;;-6.36;80.23;102341.41;4991627;28;20038;-75
2021/01/16 04:01:40;;;;;;;11.02;4.75;;;;;;;-6.37;80.16;102335.25;4993364;28;20053;-75
2021/01/16 04:04:05;;;;;;;10.95;5.10;;;;;;;-6.37;80.44;102343.22;4976322;28;20038;-75
2021/01/16 04:06:30;;;;;;;11.57;5.15;;;;;;;-6.38;80.41;102328.28;4993219;28;20026;-75
2021/01/16 04:08:56;;;;;;;10.23;5.07;;;;;;;-6.37;80.24;102329.09;4991261;28;20496;-75
2021/01/16 04:11:21;;;;;;;12.55;6.35;;;;;;;-6.37;80.37;102337.06;4988341;28;20034;-74
2021/01/16 04:13:47;;;;;;;10.13;4.50;;;;;;;-6.38;80.35;102333.56;4975806;28;20026;-74
2021/01/16 04:16:12;;;;;;;11.02;5.30;;;;;;;-6.36;80.45;102336.94;4981888;28;20045;-74
2021/01/16 04:18:37;;;;;;;9.63;4.28;;;;;;;-6.36;80.22;102330.78;4993470;28;20042;-75
2021/01/16 04:21:03;;;;;;;10.32;5.50;;;;;;;-6.33;80.38;102333.19;4977058;28;20026;-75
2021/01/16 04:23:28;;;;;;;11.05;5.30;;;;;;;-6.32;80.18;102327.75;4994007;28;20033;-75
2021/01/16 04:25:54;;;;;;;10.15;4.57;;;;;;;-6.31;80.13;102332.09;4991558;28;20023;-75
2021/01/16 04:28:19;;;;;;;9.40;4.70;;;;;;;-6.32;80.32;102325.09;4977489;28;20443;-74
2021/01/16 04:30:45;;;;;;;9.30;4.95;;;;;;;-6.30;80.18;102325.00;4991899;28;20031;-74
2021/01/16 04:33:10;;;;;;;9.63;4.70;;;;;;;-6.31;80.38;102323.28;4986550;28;20037;-75
2021/01/16 04:35:36;;;;;;;8.77;4.00;;;;;;;-6.32;80.52;102317.16;4992750;28;20030;-75
2021/01/16 04:38:01;;;;;;;8.43;4.30;;;;;;;-6.31;80.53;102312.69;4991817;28;20026;-74
2021/01/16 04:40:28;;;;;;;9.63;4.13;;;;;;;-6.31;80.30;102316.16;4991081;28;20037;-75
2021/01/16 04:42:53;;;;;;;6.93;4.00;;;;;;;-6.30;80.46;102317.03;4976108;28;20415;-74
2021/01/16 04:45:19;;;;;;;8.95;4.68;;;;;;;-6.29;80.33;102316.91;4974961;28;20015;-74
2021/01/16 04:47:45;;;;;;;10.63;4.30;;;;;;;-6.27;80.19;102317.63;4995045;28;20025;-74
2021/01/16 04:50:15;;;;;;;8.63;4.10;;;;;;;-6.26;80.35;102313.97;4956889;28;20069;-74
2021/01/16 04:52:40;;;;;;;10.20;4.30;;;;;;;-6.23;80.49;102304.94;4994404;28;20026;-75
2021/01/16 04:55:11;;;;;;;7.97;4.50;;;;;;;-6.22;80.37;102306.63;4990763;28;20077;-76
2021/01/16 04:57:37;;;;;;;7.82;4.72;;;;;;;-6.20;80.66;102303.84;4963863;28;20027;-75
2021/01/16 05:00:05;;;;;;;8.55;3.85;;;;;;;-6.19;80.56;102301.06;5003159;28;20443;-75
2021/01/16 05:02:31;;;;;;;7.90;4.15;;;;;;;-6.18;80.45;102301.91;4989414;28;20038;-76
2021/01/16 05:04:57;;;;;;;8.15;4.60;;;;;;;-6.17;80.19;102308.88;4975969;28;20031;-75
2021/01/16 05:07:22;;;;;;;9.85;4.65;;;;;;;-6.17;80.29;102293.78;4990315;28;20495;-75
2021/01/16 05:09:47;;;;;;;10.68;4.30;;;;;;;-6.15;80.59;102297.19;4975088;28;20030;-76
2021/01/16 05:12:44;;;;;;;7.97;4.35;;;;;;;-6.15;80.50;102291.03;4975398;28;20030;-75
2021/01/16 05:15:12;;;;;;;8.82;4.00;;;;;;;-6.14;80.31;102296.22;4972188;28;20054;-75
2021/01/16 05:17:43;;;;;;;8.88;4.38;;;;;;;-6.13;80.37;102284.63;4991154;28;20034;-76
2021/01/16 05:20:08;;;;;;;7.68;4.22;;;;;;;-6.12;80.34;102296.09;4985311;28;20078;-75
2021/01/16 05:22:34;;;;;;;8.85;4.38;;;;;;;-6.10;80.65;102291.50;4992231;28;20395;-75
2021/01/16 05:25:04;;;;;;;7.28;3.72;;;;;;;-6.11;80.53;102285.34;4990949;28;20086;-75
2021/01/16 05:27:38;;;;;;;8.48;4.35;;;;;;;-6.09;80.54;102285.19;4992065;28;20042;-75
2021/01/16 05:30:06;;;;;;;9.77;4.75;;;;;;;-6.07;80.64;102288.59;4974856;28;20154;-76
2021/01/16 05:32:32;;;;;;;7.65;4.57;;;;;;;-6.05;80.66;102281.34;4979795;28;20108;-76
2021/01/16 05:35:20;;;;;;;9.70;4.63;;;;;;;-6.03;80.62;102282.03;4990852;28;20467;-76
2021/01/16 05:37:46;;;;;;;7.78;4.10;;;;;;;-6.01;80.66;102279.25;4984377;28;20030;-74
2021/01/16 05:40:12;;;;;;;7.78;4.43;;;;;;;-6.00;80.57;102276.50;4991029;28;20097;-74
2021/01/16 05:42:38;;;;;;;7.10;3.63;;;;;;;-6.00;80.52;102273.84;4990418;28;20034;-74
2021/01/16 05:45:06;;;;;;;9.10;4.18;;;;;;;-5.97;80.88;102278.88;4986171;28;20026;-75
2021/01/16 05:47:32;;;;;;;9.38;4.63;;;;;;;-5.93;80.80;102268.84;4990567;28;20031;-75
2021/01/16 05:49:59;;;;;;;6.75;3.80;;;;;;;-5.89;80.62;102255.16;4988210;28;20108;-75
2021/01/16 05:52:24;;;;;;;7.30;4.43;;;;;;;-5.84;81.10;102258.25;4974345;28;20574;-74
2021/01/16 05:54:50;;;;;;;10.88;5.70;;;;;;;-5.81;81.26;102252.69;4971417;28;20045;-75
2021/01/16 05:57:16;;;;;;;8.63;4.82;;;;;;;-5.77;81.07;102247.94;4985395;28;20027;-74
2021/01/16 05:59:41;;;;;;;6.78;3.58;;;;;;;-5.72;80.65;102247.56;4989682;28;20395;-75
2021/01/16 06:02:07;;;;;;;6.65;3.60;;;;;;;-5.70;81.19;102251.78;4975152;28;20026;-75
2021/01/16 06:04:33;;;;;;;10.10;3.95;;;;;;;-5.65;81.11;102248.69;4973120;28;20029;-75
2021/01/16 06:07:06;;;;;;;8.25;3.22;;;;;;;-5.62;81.28;102240.47;4972976;28;20057;-75
2021/01/16 06:09:31;;;;;;;5.57;3.05;;;;;;;-5.57;81.03;102243.56;4987070;28;20229;-76
2021/01/16 06:11:58;;;;;;;9.10;3.53;;;;;;;-5.52;81.51;102241.38;4975896;28;20090;-75
2021/01/16 06:14:23;;;;;;;5.53;3.13;;;;;;;-5.50;81.16;102230.63;4984952;28;20030;-75
2021/01/16 06:16:55;;;;;;;4.65;2.67;;;;;;;-5.46;81.63;102224.03;4975089;28;20387;-75
2021/01/16 06:19:25;;;;;;;7.53;2.80;;;;;;;-5.43;81.63;102227.31;4985307;28;20031;-75
2021/01/16 06:21:50;;;;;;;5.72;2.78;;;;;;;-5.36;81.43;102222.28;5003488;28;20096;-75
2021/01/16 06:24:20;;;;;;;6.03;2.33;;;;;;;-5.30;81.90;102212.94;4988777;28;20592;-75
2021/01/16 06:26:56;;;;;;;4.90;2.83;;;;;;;-5.24;81.58;102213.25;4989765;28;20050;-76
2021/01/16 06:29:31;;;;;;;4.82;2.28;;;;;;;-5.18;81.48;102222.50;4989078;28;20113;-75
2021/01/16 06:32:10;;;;;;;4.13;2.20;;;;;;;-5.18;81.51;102222.50;4990273;28;20041;-75
2021/01/16 06:34:42;;;;;;;3.90;2.08;;;;;;;-5.17;81.89;102218.84;4983005;28;20110;-75
2021/01/16 06:37:15;;;;;;;6.65;3.00;;;;;;;-5.12;81.87;102216.63;4989615;28;20041;-74
2021/01/16 06:39:44;;;;;;;5.82;2.78;;;;;;;-5.08;81.76;102220.69;4989465;28;20053;-75
2021/01/16 06:42:22;;;;;;;4.68;2.50;;;;;;;-5.01;82.02;102213.03;4990534;28;20026;-75
2021/01/16 06:44:47;;;;;;;4.68;2.20;;;;;;;-4.95;81.67;102212.47;4980311;28;20072;-73
2021/01/16 06:47:13;;;;;;;4.28;1.88;;;;;;;-4.89;82.26;102200.44;4986885;28;20030;-75
2021/01/16 06:49:38;;;;;;;4.88;2.40;;;;;;;-4.83;82.07;102205.19;4988217;28;20038;-75
2021/01/16 06:52:05;;;;;;;5.40;2.13;;;;;;;-4.80;82.19;102196.94;4990417;28;20038;-74
2021/01/16 06:54:34;;;;;;;3.85;2.15;;;;;;;-4.74;82.03;102196.41;4988919;28;20126;-75
2021/01/16 06:57:09;;;;;;;4.50;1.70;;;;;;;-4.68;81.88;102201.16;4990461;28;20027;-75
2021/01/16 06:59:39;;;;;;;3.78;2.42;;;;;;;-4.63;81.91;102208.75;4990529;28;20026;-74
2021/01/16 07:02:17;;;;;;;5.50;1.80;;;;;;;-4.60;81.92;102206.63;4987194;28;20030;-75
2021/01/16 07:04:50;;;;;;;3.72;1.70;;;;;;;-4.57;81.28;102200.19;4988612;28;20114;-74
2021/01/16 07:07:16;;;;;;;8.48;2.10;;;;;;;-4.53;81.91;102202.44;4971542;28;20030;-74
2021/01/16 07:09:42;;;;;;;3.58;1.90;;;;;;;-4.49;81.35;102203.00;4974489;28;20030;-74
2021/01/16 07:12:07;;;;;;;3.38;1.60;;;;;;;-4.48;81.67;102197.53;4974046;28;20545;-74
2021/01/16 07:14:32;;;;;;;3.95;1.80;;;;;;;-4.48;81.70;102192.19;4965320;28;20154;-74
2021/01/16 07:16:58;;;;;;;3.58;2.00;;;;;;;-4.45;81.16;102188.41;4974579;28;20049;-74
2021/01/16 07:19:23;;;;;;;3.88;2.25;;;;;;;-4.43;81.20;102186.47;4987476;28;20057;-73
2021/01/16 07:21:49;;;;;;;4.50;2.33;;;;;;;-4.41;81.24;102181.00;4991362;28;20019;-74
2021/01/16 07:24:15;;;;;;;5.05;2.00;;;;;;;-4.38;81.40;102186.06;4989411;28;20113;-74
2021/01/16 07:26:41;;;;;;;3.78;2.45;;;;;;;-4.39;81.96;102176.38;4986768;28;20071;-75
2021/01/16 07:29:07;;;;;;;4.35;2.72;;;;;;;-4.40;81.86;102172.03;4983594;28;20031;-74
2021/01/16 07:31:35;;;;;;;4.07;2.05;;;;;;;-4.41;81.18;102173.84;4985588;28;20542;-73
2021/01/16 07:34:01;;;;;;;4.68;2.08;;;;;;;-4.40;81.52;102174.69;4981096;28;20027;-74
2021/01/16 07:36:26;;;;;;;4.43;2.22;;;;;;;-4.41;81.87;102162.38;4985644;28;20035;-75
2021/01/16 07:38:51;;;;;;;5.38;2.22;;;;;;;-4.41;81.34;102175.69;4959789;28;20034;-73
2021/01/16 07:41:17;;;;;;;3.63;2.22;;;;;;;-4.41;81.78;102168.53;4956928;28;20045;-74
2021/01/16 07:43:45;;;;;;;2.47;1.80;;;;;;;-4.40;81.40;102167.53;4972355;28;20049;-75
2021/01/16 07:46:11;;;;;;;4.65;1.80;;;;;;;-4.39;81.89;102171.91;4990410;28;20037;-73
2021/01/16 07:48:56;;;;;;;5.85;2.20;;;;;;;-4.38;81.61;102170.06;4985893;28;20014;-74
2021/01/16 07:51:21;;;;;;;4.80;2.10;;;;;;;-4.34;81.50;102169.66;4989435;28;20041;-73
2021/01/16 07:53:46;;;;;;;3.90;1.80;;;;;;;-4.34;81.65;102174.13;4987758;28;20468;-72
2021/01/16 07:56:21;;;;;;;2.22;1.40;;;;;;;-4.35;81.51;102173.28;4973023;28;20034;-74
2021/01/16 07:59:21;;;;;;;2.75;1.40;;;;;;;-4.32;81.61;102166.84;4990707;28;20033;-74
2021/01/16 08:02:26;;;;;;;2.17;1.30;;;;;;;-4.29;81.02;102177.19;4975767;28;20054;-74
2021/01/16 08:05:04;;;;;;;2.83;1.50;;;;;;;-4.27;81.07;102161.94;4970828;28;20058;-74
2021/01/16 08:07:58;;;;;;;2.45;1.80;;;;;;;-4.25;81.25;102157.31;4993040;28;20018;-74
2021/01/16 08:10:24;;;;;;;3.55;1.63;;;;;;;-4.21;80.95;102155.19;4993318;28;20785;-73
2021/01/16 08:12:49;;;;;;;3.55;1.75;;;;;;;-4.18;81.36;102146.91;4993930;28;20041;-74
2021/01/16 08:15:16;;;;;;;3.03;1.13;;;;;;;-4.17;81.02;102140.63;4971811;28;20026;-74
2021/01/16 08:17:41;;;;;;;2.20;1.15;;;;;;;-4.12;80.31;102141.88;4991930;28;20487;-74
2021/01/16 08:20:28;;;;;;;2.90;1.23;;;;;;;-4.08;80.58;102140.59;4993668;28;20026;-74
2021/01/16 08:22:57;;;;;;;2.63;1.23;;;;;;;-4.05;80.30;102140.28;4990677;28;20027;-74
2021/01/16 08:25:27;;;;;;;1.33;1.00;;;;;;;-4.03;80.50;102142.81;4993650;28;20022;-74
2021/01/16 08:27:56;;;;;;;2.65;1.70;;;;;;;-4.04;80.38;102144.66;4990414;28;20053;-74
2021/01/16 08:30:23;;;;;;;4.10;2.08;;;;;;;-4.04;80.36;102143.78;4991463;28;20435;-73
2021/01/16 08:32:52;;;;;;;2.95;1.63;;;;;;;-4.06;79.71;102140.47;4992200;28;20026;-74
2021/01/16 08:35:31;;;;;;;3.15;1.67;;;;;;;-4.09;80.01;102136.25;4990392;28;20050;-73
2021/01/16 08:38:15;;;;;;;4.07;2.40;;;;;;;-4.11;79.83;102130.22;4971442;28;20037;-74
2021/01/16 08:40:41;;;;;;;2.50;1.77;;;;;;;-4.14;80.47;102133.19;4990399;28;20030;-73
2021/01/16 08:43:06;;;;;;;3.47;1.95;;;;;;;-4.16;79.65;102124.50;4991339;28;20037;-73
2021/01/16 08:45:31;;;;;;;3.35;1.85;;;;;;;-4.18;80.14;102131.78;4993103;28;20464;-73
2021/01/16 08:47:58;;;;;;;3.03;1.85;;;;;;;-4.20;80.02;102136.44;4985029;28;20022;-73
2021/01/16 08:50:27;;;;;;;5.30;2.10;;;;;;;-4.21;80.32;102136.56;5007086;28;20384;-73
2021/01/16 08:52:53;;;;;;;4.15;1.90;;;;;;;-4.21;80.09;102125.91;4993329;28;20030;-73
2021/01/16 08:55:24;;;;;;;4.47;2.08;;;;;;;-4.22;79.53;102130.41;4989855;28;20077;-74
2021/01/16 08:57:49;;;;;;;9.07;2.00;;;;;;;-4.25;80.13;102128.84;4973320;28;20519;-73
2021/01/16 09:00:24;;;;;;;5.15;2.00;;;;;;;-4.26;79.50;102124.53;4990282;28;20118;-73
2021/01/16 09:03:10;;;;;;;3.22;2.10;;;;;;;-4.28;79.77;102115.00;4991847;28;20486;-74
2021/01/16 09:05:36;;;;;;;5.35;2.22;;;;;;;-4.29;79.80;102113.31;4990648;28;20030;-76
2021/01/16 09:08:01;;;;;;;4.05;1.92;;;;;;;-4.30;79.50;102112.47;4956398;28;20023;-76
2021/01/16 09:10:27;;;;;;;3.13;1.70;;;;;;;-4.27;79.83;102116.66;4992105;28;20406;-74
2021/01/16 09:12:53;;;;;;;4.55;2.00;;;;;;;-4.26;79.95;102113.00;4993154;28;20034;-74
2021/01/16 09:15:23;;;;;;;2.78;1.65;;;;;;;-4.23;79.84;102112.72;4994164;28;20038;-74
2021/01/16 09:18:04;;;;;;;3.53;1.95;;;;;;;-4.20;79.52;102104.47;4991498;28;20018;-74
2021/01/16 09:20:40;;;;;;;3.90;2.03;;;;;;;-4.16;79.48;102103.19;4993964;28;20038;-74
2021/01/16 09:23:24;;;;;;;3.35;1.98;;;;;;;-4.13;79.92;102102.06;4991674;28;20053;-74
2021/01/16 09:25:57;;;;;;;5.03;1.88;;;;;;;-4.11;79.44;102103.59;4992258;28;20424;-74
2021/01/16 09:28:41;;;;;;;5.07;2.40;;;;;;;-4.09;79.46;102101.63;4989620;28;20043;-73
2021/01/16 09:31:20;;;;;;;3.38;1.88;;;;;;;-4.09;79.26;102093.63;4991933;28;20467;-74
2021/01/16 09:33:45;;;;;;;4.25;2.53;;;;;;;-4.05;79.92;102094.19;4988644;28;20034;-74
2021/01/16 09:36:11;;;;;;;4.13;2.20;;;;;;;-4.04;79.80;102088.72;4989526;28;20069;-74
2021/01/16 09:38:37;;;;;;;2.88;1.67;;;;;;;-4.04;79.28;102096.72;4990445;28;20031;-74
2021/01/16 09:41:03;;;;;;;4.13;2.25;;;;;;;-4.04;79.25;102094.03;4991852;28;20037;-75
2021/01/16 09:43:31;;;;;;;3.70;2.13;;;;;;;-4.03;79.78;102095.72;4987039;28;20030;-74
2021/01/16 09:45:57;;;;;;;4.45;2.53;;;;;;;-4.01;79.79;102098.25;4992684;28;20161;-74
2021/01/16 09:48:39;;;;;;;4.47;2.22;;;;;;;-4.02;79.58;102094.72;4992845;28;20109;-74
2021/01/16 09:51:05;;;;;;;4.22;2.33;;;;;;;-3.99;79.65;102087.44;4992645;28;20057;-74
2021/01/16 09:53:30;;;;;;;4.57;2.08;;;;;;;-3.99;79.83;102082.09;4991384;28;20034;-74
2021/01/16 09:55:56;;;;;;;4.82;2.22;;;;;;;-3.97;79.61;102085.47;4987842;28;20049;-73
2021/01/16 09:58:35;;;;;;;3.40;1.67;;;;;;;-3.96;79.72;102087.97;4988185;28;20029;-74
2021/01/16 10:01:23;;;;;;;5.25;2.17;;;;;;;-3.93;79.43;102089.50;4992271;28;20053;-74
2021/01/16 10:03:52;;;;;;;5.50;2.35;;;;;;;-3.91;79.08;102084.88;4975878;28;20037;-74
2021/01/16 10:06:25;;;;;;;7.20;2.58;;;;;;;-3.91;79.08;102079.53;4993245;28;20018;-74
2021/01/16 10:08:50;;;;;;;4.03;2.42;;;;;;;-3.88;79.31;102087.25;4972451;28;20051;-74
2021/01/16 10:11:39;;;;;;;6.10;2.55;;;;;;;-3.87;78.98;102086.28;4992091;28;20042;-74
2021/01/16 10:14:12;;;;;;;6.07;2.67;;;;;;;-3.85;78.92;102081.63;4985400;28;20384;-74
2021/01/16 10:16:37;;;;;;;5.18;2.50;;;;;;;-3.83;79.56;102083.16;4991024;28;20038;-74
2021/01/16 10:19:02;;;;;;;4.35;2.70;;;;;;;-3.83;79.05;102083.16;4975669;28;20046;-74
2021/01/16 10:21:28;;;;;;;4.82;2.65;;;;;;;-3.78;79.47;102081.88;4958835;28;20022;-74
2021/01/16 10:23:53;;;;;;;5.68;2.80;;;;;;;-3.78;78.99;102072.06;4989265;28;20492;-75
2021/01/16 10:26:19;;;;;;;4.38;2.70;;;;;;;-3.75;79.43;102073.59;4975297;28;20022;-75
2021/01/16 10:28:53;;;;;;;5.60;2.67;;;;;;;-3.74;79.47;102054.78;4991391;28;20324;-74
2021/01/16 10:31:26;;;;;;;4.75;2.35;;;;;;;-3.71;78.95;102065.16;4992902;28;20030;-75
2021/01/16 10:33:52;;;;;;;5.82;2.50;;;;;;;-3.68;79.16;102064.84;4992078;28;20077;-75
2021/01/16 10:36:18;;;;;;;5.45;2.63;;;;;;;-3.64;78.66;102071.56;4975579;28;20429;-74
2021/01/16 10:38:47;;;;;;;3.63;2.10;;;;;;;-3.63;78.75;102067.91;4991695;28;20035;-74
2021/01/16 10:41:17;;;;;;;5.28;2.47;;;;;;;-3.61;79.30;102060.59;4992906;28;20117;-74
2021/01/16 10:43:42;;;;;;;3.90;2.50;;;;;;;-3.59;79.34;102058.63;4991621;28;20026;-74
2021/01/16 10:46:12;;;;;;;2.83;1.92;;;;;;;-3.55;79.12;102053.00;4991817;28;20034;-74
2021/01/16 10:48:38;;;;;;;5.05;2.63;;;;;;;-3.55;78.65;102047.66;4990779;28;20431;-74
2021/01/16 10:51:08;;;;;;;5.80;2.40;;;;;;;-3.52;78.79;102058.03;4975115;28;20550;-75
2021/01/16 10:53:35;;;;;;;5.32;2.63;;;;;;;-3.51;79.27;102059.72;4988893;28;20065;-74
2021/01/16 10:56:00;;;;;;;5.97;2.45;;;;;;;-3.49;78.80;102057.72;4991250;28;20022;-74
2021/01/16 10:58:27;;;;;;;4.10;2.13;;;;;;;-3.46;78.71;102049.44;4974189;28;20030;-74
2021/01/16 11:00:54;;;;;;;3.17;1.92;;;;;;;-3.43;79.21;102057.97;4992460;28;20038;-74
2021/01/16 11:03:19;;;;;;;3.25;2.10;;;;;;;-3.41;79.09;102055.13;4991488;28;20026;-74
2021/01/16 11:05:45;;;;;;;4.88;2.17;;;;;;;-3.40;78.58;102047.00;4991448;28;20034;-73
2021/01/16 11:08:11;;;;;;;5.05;2.78;;;;;;;-3.37;78.68;102051.19;4974218;28;20031;-74
2021/01/16 11:10:36;;;;;;;7.20;3.90;;;;;;;-3.35;78.69;102051.88;4975258;28;20033;-74
2021/01/16 11:13:20;;;;;;;5.95;2.85;;;;;;;-3.33;78.87;102044.56;4991324;28;20023;-74
2021/01/16 11:15:46;;;;;;;6.93;3.20;;;;;;;-3.28;79.06;102039.59;4991518;28;20030;-75
2021/01/16 11:18:31;;;;;;;7.00;4.32;;;;;;;-3.25;79.26;102035.81;4973203;28;20101;-73
2021/01/16 11:21:01;;;;;;;5.72;3.20;;;;;;;-3.22;78.71;102035.50;4991313;28;20539;-75
2021/01/16 11:23:54;;;;;;;5.32;3.22;;;;;;;-3.19;78.99;102033.38;4987302;28;20057;-73
2021/01/16 11:26:19;;;;;;;;;;;;;;;-3.14;79.35;102031.09;4989648;28;20041;-74
2021/01/16 11:28:52;;;;;;;6.20;3.38;;;;;;;-3.10;79.35;102025.44;4991194;28;19913;-73
2021/01/16 11:31:46;;;;;;;6.72;4.00;;;;;;;-3.08;78.70;102024.31;4975388;28;20105;-73